Sand Point, AK

10:10 AM AKDT on August 27, 2014 (GMT -0800)
Sand Point | Change Station
CLOSE
Current Station
Airport
Location: Sand Point,
Elevation: 23 ft
Nearby Weather Stations

Elev 23 ft 55.31 °N, 160.52 °W | Updated 14 minutes ago

Overcast
Overcast
55 °F
Feels Like 55 °F
N
4
Wind Variable Wind from SSW

Today
High -- | Low -- °F
--% Chance of Precip.
Yesterday
High -- | Low -- °F
Precip. -- in
7:38 AM 9:46 PM
Waxing Crescent, 4% visible
Pressure 29.71 in
Visibility 10.0 miles
Clouds Scattered Clouds 1500 ft
Mostly Cloudy 1900 ft
Overcast 2600 ft
Dew Point 54 °F
Humidity 94%
Rainfall 0.00 in
Snow Depth Not available.
UV 0 out of 12
Pollen Not available.
Air Quality Not available.
Flu Activity Not available.
METAR PASD 271756Z 21003KT 10SM SCT015 BKN019 OVC026 13/12 A2971 RMK AO1 WEA: -RA (DA) 10140 20130 57014

More Conditions Fewer Conditions

Pressure 29.71 in
Visibility 10.0 miles
Clouds Scattered Clouds 1500 ft
Mostly Cloudy 1900 ft
Overcast 2600 ft
Dew Point 54 °F
Humidity 94%
Rainfall 0.00 in
Snow Depth Not available.
UV 0 out of 12
Pollen Not available.
Air Quality Not available.
Flu Activity Not available.
METAR PASD 271756Z 21003KT 10SM SCT015 BKN019 OVC026 13/12 A2971 RMK AO1 WEA: -RA (DA) 10140 20130 57014

More Conditions Fewer Conditions

10-Day Weather Forecast

Almanac

Astronomy

Aug. 27, 2014 Rise Set
Actual Time 7:38 AM AKDT 9:46 PM AKDT
Civil Twilight 6:59 AM AKDT 10:26 PM AKDT
Nautical Twilight 6:08 AM AKDT 11:15 PM AKDT
Astronomical Twilight 5:09 AM AKDT 12:14 AM AKDT
Moon 10:15 AM AKDT 10:11 PM AKDT
Length of Visible Light 15h 27m
Length of Day
14h 08m
Tomorrow will be 4m 23s shorter.
Waxing Crescent, 4% of the Moon is Illuminated
Today
Waxing Crescent
Sep 2
First Quarter
Sep 8
Full
Sep 15
Last Quarter
Sep 24
New

Today's Extremes

State Highs State Lows

Community

WunderPhotos

Upload Photos

1,747,747 photos uploaded!

Nearby

Snow Depth

Station Depth Elevation
Port Graham 0 in 300 ft
Mcneil Canyon 1 in 1320 ft
Nuka Glacier 164 in 1250 ft
MF Bradley River 4 in 2300 ft
Cooper Lake 21 in 1200 ft

Earthquake Activity

City Distance Mag. Time & Date
No recent earthquake activity has been reported nearby.
Minimum magnitude displayed is 2.5.

Coastal Water Temperatures

Place Temperature
No Stations Reporting

Nearby Weather Stations